Time;durP1;ratioP1;P1;durP2;ratioP2;P2;SDS_P1;SDS_P2;PMS_P1;PMS_P2;Temp;Humidity;BMP_temperature;BMP_pressure;BME280_temperature;BME280_humidity;BME280_pressure;Samples;Min_cycle;Max_cycle;Signal;HPM_P1;HPM_P2
2023/05/29 00:01:52;;;;;;;0.00;0.00;;;15.40;90.30;;;;;;5070263;28;20176;-61
2023/05/29 00:04:18;;;;;;;0.00;0.00;;;15.40;90.30;;;;;;5070704;28;20180;-61
2023/05/29 00:06:43;;;;;;;0.00;0.00;;;15.40;90.20;;;;;;5069396;28;20255;-61
2023/05/29 00:09:09;;;;;;;0.00;0.00;;;15.40;90.50;;;;;;5070072;28;20327;-60
2023/05/29 00:11:34;;;;;;;0.00;0.00;;;15.40;90.20;;;;;;5070047;28;20177;-60
2023/05/29 00:14:00;;;;;;;0.00;0.00;;;15.40;90.20;;;;;;5069937;28;20222;-61
2023/05/29 00:16:26;;;;;;;0.00;0.00;;;15.30;90.10;;;;;;5069957;28;20628;-61
2023/05/29 00:18:53;;;;;;;0.08;0.08;;;15.30;90.00;;;;;;5069960;28;20173;-61
2023/05/29 00:21:19;;;;;;;0.00;0.00;;;15.30;89.70;;;;;;5070585;28;20606;-60
2023/05/29 00:23:44;;;;;;;0.00;0.00;;;15.30;89.50;;;;;;5070215;28;20208;-60
2023/05/29 00:26:10;;;;;;;0.00;0.00;;;15.30;89.40;;;;;;5070174;28;20679;-60
2023/05/29 00:28:36;;;;;;;0.10;0.10;;;15.30;89.30;;;;;;5069896;28;20270;-60
2023/05/29 00:31:02;;;;;;;0.28;0.28;;;15.30;89.20;;;;;;5068751;28;20211;-61
2023/05/29 00:33:27;;;;;;;0.10;0.10;;;15.40;89.20;;;;;;5057027;28;20730;-60
2023/05/29 00:35:53;;;;;;;0.00;0.00;;;15.40;89.00;;;;;;5069560;28;20664;-60
2023/05/29 00:38:18;;;;;;;0.00;0.00;;;15.40;89.10;;;;;;5072896;28;20193;-61
2023/05/29 00:40:44;;;;;;;0.00;0.00;;;15.30;89.10;;;;;;5072426;28;20276;-61
2023/05/29 00:43:09;;;;;;;0.20;0.20;;;15.30;89.10;;;;;;5066477;28;20195;-60
2023/05/29 00:45:36;;;;;;;0.00;0.00;;;15.30;89.80;;;;;;5073895;28;20204;-61
2023/05/29 00:48:03;;;;;;;0.00;0.00;;;15.30;89.00;;;;;;5067880;28;20184;-60
2023/05/29 00:50:29;;;;;;;0.00;0.00;;;15.30;89.00;;;;;;5073646;28;20227;-61
2023/05/29 00:52:55;;;;;;;0.00;0.00;;;15.30;89.00;;;;;;5073644;28;20207;-60
2023/05/29 00:55:22;;;;;;;1.25;0.80;;;15.30;89.70;;;;;;5071953;28;20773;-60
2023/05/29 00:57:49;;;;;;;0.00;0.00;;;15.30;89.00;;;;;;5072678;28;20181;-60
2023/05/29 01:00:15;;;;;;;0.28;0.28;;;15.20;88.90;;;;;;5072930;28;20211;-60
2023/05/29 01:02:44;;;;;;;0.00;0.00;;;15.20;89.10;;;;;;5073367;28;20181;-61
2023/05/29 01:05:11;;;;;;;0.00;0.00;;;15.20;89.10;;;;;;5073505;28;20657;-61
2023/05/29 01:07:37;;;;;;;0.00;0.00;;;15.20;89.00;;;;;;5073235;28;20177;-60
2023/05/29 01:10:03;;;;;;;0.00;0.00;;;15.20;88.90;;;;;;5073412;28;20212;-60
2023/05/29 01:12:47;;;;;;;0.13;0.13;;;15.20;88.90;;;;;;5072886;28;20180;-63
2023/05/29 01:15:13;;;;;;;0.10;0.10;;;15.20;89.00;;;;;;5072464;28;20263;-60
2023/05/29 01:18:01;;;;;;;0.00;0.00;;;15.20;89.00;;;;;;5072928;28;20302;-61
2023/05/29 01:20:31;;;;;;;0.00;0.00;;;15.20;89.00;;;;;;5057669;28;20636;-61
2023/05/29 01:23:14;;;;;;;0.00;0.00;;;15.10;88.80;;;;;;5071602;28;20322;-61
2023/05/29 01:26:22;;;;;;;0.00;0.00;;;15.10;88.60;;;;;;5071282;28;20248;-61
2023/05/29 01:28:50;;;;;;;0.00;0.00;;;15.10;88.60;;;;;;5055492;28;20788;-60
2023/05/29 01:31:19;;;;;;;0.00;0.00;;;15.10;88.60;;;;;;5071557;28;20545;-60
2023/05/29 01:33:52;;;;;;;0.08;0.08;;;15.10;88.40;;;;;;5072349;28;20160;-60
2023/05/29 01:36:18;;;;;;;0.00;0.00;;;15.10;88.40;;;;;;5072660;28;20652;-60
2023/05/29 01:38:44;;;;;;;0.00;0.00;;;15.10;88.30;;;;;;5072118;28;20231;-61
2023/05/29 01:41:10;;;;;;;0.00;0.00;;;15.10;88.40;;;;;;5071638;28;20184;-60
2023/05/29 01:43:36;;;;;;;0.00;0.00;;;15.00;88.30;;;;;;5071791;28;20267;-60
2023/05/29 01:46:02;;;;;;;0.10;0.10;;;15.00;88.30;;;;;;5071054;28;20260;-61
2023/05/29 01:48:27;;;;;;;0.00;0.00;;;15.00;88.30;;;;;;5071826;28;20211;-60
2023/05/29 01:50:55;;;;;;;0.00;0.00;;;15.00;88.30;;;;;;5071368;28;20651;-60
2023/05/29 01:53:22;;;;;;;0.00;0.00;;;15.00;88.40;;;;;;5071591;28;20208;-60
2023/05/29 01:55:48;;;;;;;0.00;0.00;;;14.90;88.40;;;;;;5071595;28;20177;-60
2023/05/29 01:58:14;;;;;;;0.00;0.00;;;14.90;88.40;;;;;;5071621;28;20187;-60
2023/05/29 02:00:40;;;;;;;0.00;0.00;;;14.90;88.50;;;;;;5071186;28;20804;-60
2023/05/29 02:03:05;;;;;;;0.00;0.00;;;14.90;88.50;;;;;;5071256;28;20177;-60
2023/05/29 02:05:31;;;;;;;0.00;0.00;;;14.90;88.80;;;;;;5071380;28;20181;-60
2023/05/29 02:07:56;;;;;;;0.00;0.00;;;14.80;88.90;;;;;;5071671;28;20612;-60
2023/05/29 02:10:22;;;;;;;0.00;0.00;;;14.80;88.70;;;;;;5071772;28;20260;-60
2023/05/29 02:12:47;;;;;;;0.00;0.00;;;14.80;88.60;;;;;;5070486;28;20551;-60
2023/05/29 02:15:13;;;;;;;0.00;0.00;;;14.80;88.70;;;;;;5071532;28;20193;-60
2023/05/29 02:17:38;;;;;;;0.00;0.00;;;14.80;88.50;;;;;;5071320;28;20200;-60
2023/05/29 02:20:05;;;;;;;0.00;0.00;;;14.80;88.30;;;;;;5071846;28;20545;-60
2023/05/29 02:22:30;;;;;;;0.00;0.00;;;14.80;88.20;;;;;;5071092;28;20224;-60
2023/05/29 02:24:56;;;;;;;0.00;0.00;;;14.80;88.30;;;;;;5071423;28;20181;-60
2023/05/29 02:27:21;;;;;;;0.00;0.00;;;14.80;88.30;;;;;;5070651;28;20273;-60
2023/05/29 02:29:47;;;;;;;0.00;0.00;;;14.70;88.30;;;;;;5071539;28;20567;-60
2023/05/29 02:32:12;;;;;;;0.00;0.00;;;14.70;88.50;;;;;;5071727;28;20568;-60
2023/05/29 02:34:38;;;;;;;0.00;0.00;;;14.70;88.50;;;;;;5071955;28;20180;-60
2023/05/29 02:37:03;;;;;;;0.28;0.28;;;14.70;88.60;;;;;;5072192;28;20242;-60
2023/05/29 02:39:29;;;;;;;0.00;0.00;;;14.70;88.60;;;;;;5071820;28;20177;-60
2023/05/29 02:41:55;;;;;;;0.00;0.00;;;14.70;89.00;;;;;;5071757;28;20176;-60
2023/05/29 02:44:20;;;;;;;0.00;0.00;;;14.70;88.70;;;;;;5071710;28;20192;-60
2023/05/29 02:46:46;;;;;;;0.00;0.00;;;14.70;89.20;;;;;;5071366;28;20671;-60
2023/05/29 02:49:11;;;;;;;0.00;0.00;;;14.70;89.30;;;;;;5071469;28;20224;-60
2023/05/29 02:51:37;;;;;;;0.00;0.00;;;14.60;89.40;;;;;;5071124;28;20181;-61
2023/05/29 02:54:03;;;;;;;0.00;0.00;;;14.60;90.00;;;;;;5071318;28;20184;-60
2023/05/29 02:56:28;;;;;;;0.00;0.00;;;14.60;90.10;;;;;;5070629;28;20659;-60
2023/05/29 02:58:54;;;;;;;0.00;0.00;;;14.50;90.10;;;;;;5071164;28;20523;-61
2023/05/29 03:01:20;;;;;;;0.00;0.00;;;14.50;90.10;;;;;;5071278;28;20252;-60
2023/05/29 03:03:45;;;;;;;0.00;0.00;;;14.40;90.10;;;;;;5070243;28;20179;-60
2023/05/29 03:06:12;;;;;;;0.00;0.00;;;14.40;90.40;;;;;;5071227;28;20831;-60
2023/05/29 03:08:41;;;;;;;0.00;0.00;;;14.30;90.40;;;;;;5071377;28;20679;-60
2023/05/29 03:11:13;;;;;;;0.00;0.00;;;14.30;90.60;;;;;;5070951;28;20177;-60
2023/05/29 03:13:38;;;;;;;0.00;0.00;;;14.20;90.70;;;;;;5071636;28;20231;-60
2023/05/29 03:16:04;;;;;;;0.00;0.00;;;14.20;90.90;;;;;;5070788;28;20672;-60
2023/05/29 03:18:29;;;;;;;0.05;0.05;;;14.10;91.00;;;;;;5071409;28;20251;-60
2023/05/29 03:20:55;;;;;;;0.00;0.00;;;14.10;91.20;;;;;;5071467;28;20234;-60
2023/05/29 03:23:21;;;;;;;0.00;0.00;;;14.00;91.40;;;;;;5071312;28;20169;-60
2023/05/29 03:25:46;;;;;;;0.63;0.10;;;14.00;91.80;;;;;;5070627;28;20297;-60
2023/05/29 03:28:12;;;;;;;0.00;0.00;;;14.00;91.80;;;;;;5071324;28;20638;-60
2023/05/29 03:30:37;;;;;;;0.00;0.00;;;13.90;92.10;;;;;;5070713;28;20189;-60
2023/05/29 03:33:03;;;;;;;0.00;0.00;;;13.90;92.10;;;;;;5070779;28;20521;-60
2023/05/29 03:35:29;;;;;;;0.00;0.00;;;13.90;92.20;;;;;;5071059;28;20173;-60
2023/05/29 03:37:55;;;;;;;0.10;0.10;;;13.90;92.40;;;;;;5070758;28;20181;-60
2023/05/29 03:40:21;;;;;;;0.00;0.00;;;13.90;92.50;;;;;;5070724;28;20173;-60
2023/05/29 03:42:46;;;;;;;0.30;0.30;;;13.90;92.80;;;;;;5070134;28;20181;-60
2023/05/29 03:45:12;;;;;;;0.00;0.00;;;13.90;92.80;;;;;;5071278;28;20173;-60
2023/05/29 03:47:37;;;;;;;0.00;0.00;;;13.80;93.00;;;;;;5070672;28;20219;-60
2023/05/29 03:50:03;;;;;;;0.00;0.00;;;13.80;93.20;;;;;;5070635;28;20679;-60
2023/05/29 03:52:29;;;;;;;0.00;0.00;;;13.80;93.20;;;;;;5071232;28;20172;-60
2023/05/29 03:54:54;;;;;;;0.00;0.00;;;13.80;93.30;;;;;;5070019;28;20180;-60
2023/05/29 03:57:20;;;;;;;0.00;0.00;;;13.90;93.60;;;;;;5070087;28;20184;-60
2023/05/29 03:59:45;;;;;;;0.10;0.10;;;13.90;93.90;;;;;;5069879;28;20231;-60
2023/05/29 04:02:11;;;;;;;0.00;0.00;;;13.90;94.20;;;;;;5069730;28;20208;-60
2023/05/29 04:04:36;;;;;;;0.00;0.00;;;13.90;94.30;;;;;;5067793;28;20199;-60
2023/05/29 04:07:02;;;;;;;0.00;0.00;;;13.90;94.40;;;;;;5070257;28;20185;-60
2023/05/29 04:09:28;;;;;;;0.00;0.00;;;13.90;94.50;;;;;;5073672;28;20216;-60
2023/05/29 04:11:54;;;;;;;0.00;0.00;;;13.90;94.60;;;;;;5073887;28;20249;-60
2023/05/29 04:14:20;;;;;;;0.00;0.00;;;13.90;94.60;;;;;;5074318;28;20173;-60
2023/05/29 04:16:45;;;;;;;0.00;0.00;;;13.90;94.80;;;;;;5073840;28;20189;-60
2023/05/29 04:19:11;;;;;;;0.00;0.00;;;13.90;94.80;;;;;;5073874;28;20180;-60
2023/05/29 04:21:37;;;;;;;0.00;0.00;;;14.00;94.90;;;;;;5073772;28;20573;-60
2023/05/29 04:24:02;;;;;;;0.25;0.15;;;14.00;95.00;;;;;;5073453;28;20172;-60
2023/05/29 04:26:28;;;;;;;0.00;0.00;;;14.10;95.10;;;;;;5072969;28;20273;-61
2023/05/29 04:28:56;;;;;;;0.00;0.00;;;14.20;95.20;;;;;;5073084;28;20216;-60
2023/05/29 04:31:25;;;;;;;0.00;0.00;;;14.30;95.20;;;;;;5073177;28;20658;-60
2023/05/29 04:33:54;;;;;;;0.00;0.00;;;14.50;95.30;;;;;;5073645;28;20181;-60
2023/05/29 04:36:26;;;;;;;0.00;0.00;;;14.70;94.60;;;;;;5073910;28;20528;-60
2023/05/29 04:38:53;;;;;;;0.00;0.00;;;14.90;94.30;;;;;;5073493;28;20712;-60
2023/05/29 04:41:23;;;;;;;0.00;0.00;;;15.10;93.90;;;;;;5073228;28;20176;-61
2023/05/29 04:43:49;;;;;;;0.00;0.00;;;15.30;93.60;;;;;;5073895;28;20173;-60
2023/05/29 04:46:15;;;;;;;0.10;0.10;;;15.60;93.40;;;;;;5073002;28;20180;-61
2023/05/29 04:48:40;;;;;;;0.00;0.00;;;16.00;93.00;;;;;;5072894;28;20208;-61
2023/05/29 04:51:10;;;;;;;0.10;0.10;;;16.40;92.30;;;;;;5073294;28;20181;-60
2023/05/29 04:53:38;;;;;;;0.05;0.05;;;16.80;91.30;;;;;;5072874;28;20643;-60
2023/05/29 04:56:04;;;;;;;0.00;0.00;;;17.10;90.70;;;;;;5079112;28;20204;-60
2023/05/29 04:58:30;;;;;;;0.00;0.00;;;17.40;90.10;;;;;;5073819;28;20165;-60
2023/05/29 05:00:57;;;;;;;0.00;0.00;;;17.70;88.70;;;;;;5071410;28;20235;-61
2023/05/29 05:03:25;;;;;;;0.00;0.00;;;18.10;87.50;;;;;;5066524;28;20181;-62
2023/05/29 05:05:51;;;;;;;0.00;0.00;;;18.40;86.20;;;;;;5061804;28;20173;-61
2023/05/29 05:08:17;;;;;;;0.00;0.00;;;18.70;84.40;;;;;;5073581;28;20245;-61
2023/05/29 05:10:43;;;;;;;0.00;0.00;;;19.00;83.60;;;;;;5072758;28;20180;-62
2023/05/29 05:13:08;;;;;;;0.00;0.00;;;19.30;82.20;;;;;;5073153;28;20248;-61
2023/05/29 05:15:34;;;;;;;0.00;0.00;;;19.50;81.30;;;;;;5072971;28;20212;-60
2023/05/29 05:17:59;;;;;;;0.00;0.00;;;19.90;79.50;;;;;;5072917;28;20172;-61
2023/05/29 05:20:25;;;;;;;0.00;0.00;;;20.20;78.90;;;;;;5073035;28;20232;-61
2023/05/29 05:22:51;;;;;;;0.00;0.00;;;20.60;76.60;;;;;;5072913;28;20173;-60
2023/05/29 05:25:17;;;;;;;0.00;0.00;;;20.90;74.30;;;;;;5073299;28;20282;-60
2023/05/29 05:27:42;;;;;;;0.10;0.10;;;21.30;73.30;;;;;;5072880;28;20558;-61
2023/05/29 05:30:08;;;;;;;0.00;0.00;;;21.70;72.20;;;;;;5072590;28;20220;-60
2023/05/29 05:32:34;;;;;;;0.00;0.00;;;22.00;70.40;;;;;;5071494;28;20227;-60
2023/05/29 05:35:00;;;;;;;0.00;0.00;;;22.30;69.50;;;;;;5075960;28;20301;-60
2023/05/29 05:37:25;;;;;;;0.00;0.00;;;22.60;69.10;;;;;;5093091;28;20176;-60
2023/05/29 05:39:53;;;;;;;0.00;0.00;;;22.90;67.40;;;;;;5077329;28;20429;-61
2023/05/29 05:42:19;;;;;;;0.00;0.00;;;23.10;66.70;;;;;;5072620;28;20191;-61
2023/05/29 05:44:45;;;;;;;0.00;0.00;;;23.40;66.20;;;;;;5072493;28;20185;-60
2023/05/29 05:47:10;;;;;;;0.00;0.00;;;23.80;65.20;;;;;;5072814;28;20306;-60
2023/05/29 05:49:36;;;;;;;0.00;0.00;;;24.20;63.60;;;;;;5072135;28;20685;-60
2023/05/29 05:52:01;;;;;;;0.00;0.00;;;24.50;61.50;;;;;;5072552;28;20264;-60
2023/05/29 05:54:27;;;;;;;0.38;0.22;;;24.60;60.60;;;;;;5072037;28;20242;-60
2023/05/29 05:56:52;;;;;;;0.00;0.00;;;24.80;59.70;;;;;;5072368;28;20180;-60
2023/05/29 05:59:18;;;;;;;0.00;0.00;;;25.00;59.50;;;;;;5072748;28;20276;-60
2023/05/29 06:01:43;;;;;;;0.00;0.00;;;25.20;58.40;;;;;;5062275;28;20177;-61
2023/05/29 06:04:09;;;;;;;0.00;0.00;;;25.30;57.50;;;;;;5071314;28;20215;-61
2023/05/29 06:06:34;;;;;;;0.00;0.00;;;25.10;57.30;;;;;;5072462;28;20594;-61
2023/05/29 06:09:00;;;;;;;0.00;0.00;;;25.20;57.40;;;;;;5071765;28;20258;-61
2023/05/29 06:11:25;;;;;;;0.00;0.00;;;25.40;57.20;;;;;;5071940;28;20238;-60
2023/05/29 06:13:52;;;;;;;0.00;0.00;;;25.60;56.70;;;;;;5071836;28;20180;-61
2023/05/29 06:16:18;;;;;;;0.00;0.00;;;25.80;56.80;;;;;;5084744;28;20187;-61
2023/05/29 06:18:44;;;;;;;0.00;0.00;;;26.20;56.50;;;;;;5092637;28;20597;-61
2023/05/29 06:21:12;;;;;;;0.00;0.00;;;26.50;55.40;;;;;;5072180;28;20675;-61
2023/05/29 06:23:38;;;;;;;0.00;0.00;;;26.60;55.00;;;;;;5072104;28;20527;-61
2023/05/29 06:26:04;;;;;;;0.00;0.00;;;26.80;54.30;;;;;;5071498;28;20307;-60
2023/05/29 06:28:30;;;;;;;0.00;0.00;;;27.10;53.50;;;;;;5071422;28;20217;-61
2023/05/29 06:30:55;;;;;;;0.00;0.00;;;27.10;53.30;;;;;;5071275;28;20537;-61
2023/05/29 06:33:21;;;;;;;0.00;0.00;;;27.00;53.30;;;;;;5072058;28;20185;-60
2023/05/29 06:35:47;;;;;;;0.08;0.08;;;27.20;53.40;;;;;;5072888;28;20591;-60
2023/05/29 06:38:14;;;;;;;0.00;0.00;;;27.40;52.30;;;;;;5083116;28;20176;-64
2023/05/29 06:40:40;;;;;;;0.00;0.00;;;27.60;52.60;;;;;;5075459;28;20268;-63
2023/05/29 06:43:05;;;;;;;0.00;0.00;;;28.00;52.40;;;;;;5070655;28;20727;-58
2023/05/29 06:45:31;;;;;;;0.00;0.00;;;28.40;52.20;;;;;;5071288;28;20176;-65
2023/05/29 06:47:56;;;;;;;0.00;0.00;;;28.80;50.80;;;;;;5070172;28;20263;-64
2023/05/29 06:50:22;;;;;;;0.00;0.00;;;29.10;49.80;;;;;;5070858;28;20584;-64
2023/05/29 06:52:47;;;;;;;0.00;0.00;;;29.20;48.70;;;;;;5071506;28;20177;-64
2023/05/29 06:55:13;;;;;;;0.00;0.00;;;29.20;48.40;;;;;;5070684;28;20227;-62
2023/05/29 06:57:39;;;;;;;0.00;0.00;;;29.20;48.00;;;;;;5070935;28;20177;-65
2023/05/29 07:00:06;;;;;;;0.00;0.00;;;29.20;48.40;;;;;;5069933;28;20189;-63
2023/05/29 07:02:32;;;;;;;0.10;0.10;;;29.40;48.80;;;;;;5070129;28;20707;-62
2023/05/29 07:04:57;;;;;;;0.00;0.00;;;29.80;48.00;;;;;;5071216;28;20181;-63
2023/05/29 07:07:23;;;;;;;0.00;0.00;;;30.10;47.00;;;;;;5071413;28;20223;-63
2023/05/29 07:09:48;;;;;;;0.00;0.00;;;29.70;46.40;;;;;;5070784;28;20208;-63
2023/05/29 07:12:14;;;;;;;0.00;0.00;;;29.70;46.60;;;;;;5071387;28;20169;-63
2023/05/29 07:14:39;;;;;;;0.00;0.00;;;29.70;46.30;;;;;;5071256;28;20181;-63
2023/05/29 07:17:05;;;;;;;0.00;0.00;;;29.70;46.50;;;;;;5069990;28;20442;-63
2023/05/29 07:19:33;;;;;;;0.00;0.00;;;29.90;47.00;;;;;;5071225;28;20184;-63
2023/05/29 07:21:59;;;;;;;0.00;0.00;;;30.10;46.80;;;;;;5071427;28;20524;-63
2023/05/29 07:24:25;;;;;;;0.00;0.00;;;30.40;46.90;;;;;;5071171;28;20195;-63
2023/05/29 07:26:50;;;;;;;0.00;0.00;;;30.70;46.60;;;;;;5071052;28;20244;-63
2023/05/29 07:29:17;;;;;;;0.00;0.00;;;31.00;45.90;;;;;;5071088;28;20561;-63
2023/05/29 07:31:44;;;;;;;0.00;0.00;;;31.00;45.70;;;;;;5071112;28;20184;-63
2023/05/29 07:34:10;;;;;;;0.00;0.00;;;31.20;46.10;;;;;;5071102;28;20164;-63
2023/05/29 07:36:35;;;;;;;0.00;0.00;;;31.30;45.60;;;;;;5071005;28;20179;-63
2023/05/29 07:39:02;;;;;;;0.00;0.00;;;30.90;43.80;;;;;;5071093;28;20274;-63
2023/05/29 07:41:27;;;;;;;0.00;0.00;;;30.80;44.80;;;;;;5070884;28;20208;-63
2023/05/29 07:43:55;;;;;;;0.00;0.00;;;30.70;44.90;;;;;;5070103;28;20522;-63
2023/05/29 07:46:20;;;;;;;0.00;0.00;;;30.70;46.40;;;;;;5070917;28;20173;-62
2023/05/29 07:48:46;;;;;;;0.00;0.00;;;30.80;45.00;;;;;;5075084;28;20698;-62
2023/05/29 07:51:13;;;;;;;0.00;0.00;;;30.90;44.40;;;;;;5077171;28;20192;-63
2023/05/29 07:53:38;;;;;;;0.00;0.00;;;30.80;44.00;;;;;;5091197;28;20275;-63
2023/05/29 07:56:04;;;;;;;0.00;0.00;;;30.80;44.80;;;;;;5071677;28;20263;-63
2023/05/29 07:58:29;;;;;;;0.00;0.00;;;30.80;44.80;;;;;;5070042;28;20276;-63
2023/05/29 08:00:55;;;;;;;0.00;0.00;;;31.10;44.90;;;;;;5070643;28;20184;-63
2023/05/29 08:03:21;;;;;;;0.00;0.00;;;31.20;44.90;;;;;;5070289;28;20177;-63
2023/05/29 08:05:46;;;;;;;0.00;0.00;;;31.20;43.70;;;;;;5070389;28;20191;-63
2023/05/29 08:08:12;;;;;;;0.00;0.00;;;31.30;44.60;;;;;;5070710;28;20279;-63
2023/05/29 08:10:38;;;;;;;0.00;0.00;;;31.40;43.40;;;;;;5070145;28;20188;-63
2023/05/29 08:13:04;;;;;;;0.00;0.00;;;31.00;43.10;;;;;;5069189;28;20168;-63
2023/05/29 08:15:31;;;;;;;0.00;0.00;;;30.90;45.10;;;;;;5071017;28;20184;-63
2023/05/29 08:17:56;;;;;;;0.00;0.00;;;30.80;43.90;;;;;;5070450;28;20265;-63
2023/05/29 08:20:22;;;;;;;0.00;0.00;;;30.70;43.90;;;;;;5071132;28;20200;-63
2023/05/29 08:22:48;;;;;;;0.00;0.00;;;30.50;44.80;;;;;;5070593;28;20191;-63
2023/05/29 08:25:13;;;;;;;0.00;0.00;;;30.60;44.30;;;;;;5070925;28;20220;-63
2023/05/29 08:27:39;;;;;;;0.00;0.00;;;30.70;44.70;;;;;;5070764;28;20177;-63
2023/05/29 08:30:05;;;;;;;0.05;0.05;;;30.60;44.70;;;;;;5070558;28;20216;-63
2023/05/29 08:32:31;;;;;;;0.00;0.00;;;30.70;45.70;;;;;;5070649;28;20658;-63
2023/05/29 08:34:56;;;;;;;0.00;0.00;;;30.80;44.80;;;;;;5070712;28;20181;-63
2023/05/29 08:37:22;;;;;;;0.03;0.03;;;30.80;44.60;;;;;;5070725;28;20235;-62
2023/05/29 08:39:48;;;;;;;0.08;0.08;;;30.90;46.00;;;;;;5070231;28;20220;-62
2023/05/29 08:42:20;;;;;;;0.10;0.10;;;31.10;45.20;;;;;;5070671;28;20685;-62
2023/05/29 08:44:49;;;;;;;0.00;0.00;;;30.90;44.00;;;;;;5070643;28;20692;-62
2023/05/29 08:47:20;;;;;;;0.00;0.00;;;30.60;45.30;;;;;;5070694;28;20165;-62
2023/05/29 08:49:47;;;;;;;0.00;0.00;;;30.40;45.20;;;;;;5070608;28;20220;-62
2023/05/29 08:52:19;;;;;;;0.40;0.40;;;30.50;45.70;;;;;;5070655;28;20168;-62
2023/05/29 08:54:44;;;;;;;0.00;0.00;;;30.60;45.00;;;;;;5072302;28;20674;-62
2023/05/29 08:57:11;;;;;;;0.00;0.00;;;30.50;45.10;;;;;;5074918;28;20181;-62
2023/05/29 08:59:38;;;;;;;0.00;0.00;;;30.30;45.70;;;;;;5074328;28;20195;-61
2023/05/29 09:02:04;;;;;;;0.08;0.08;;;30.00;45.60;;;;;;5073341;28;20268;-61
2023/05/29 09:04:33;;;;;;;0.00;0.00;;;29.80;46.30;;;;;;5074210;28;20642;-61
2023/05/29 09:06:59;;;;;;;0.00;0.00;;;29.70;46.80;;;;;;5073978;28;20582;-61
2023/05/29 09:09:28;;;;;;;0.00;0.00;;;29.10;47.00;;;;;;5073997;28;20213;-61
2023/05/29 09:11:54;;;;;;;0.50;0.50;;;29.00;48.20;;;;;;5073861;28;20176;-61
2023/05/29 09:14:44;;;;;;;0.10;0.10;;;29.10;47.20;;;;;;5068248;28;20186;-61
2023/05/29 09:17:11;;;;;;;0.00;0.00;;;29.10;47.30;;;;;;5053933;28;20180;-61
2023/05/29 09:19:40;;;;;;;0.00;0.00;;;29.00;47.00;;;;;;5064580;28;20647;-61
2023/05/29 09:22:14;;;;;;;0.00;0.00;;;28.90;46.90;;;;;;5073879;28;20238;-64
2023/05/29 09:24:40;;;;;;;0.00;0.00;;;28.70;47.20;;;;;;5053988;28;20189;-62
2023/05/29 09:27:11;;;;;;;0.00;0.00;;;28.60;47.80;;;;;;5053532;28;20224;-61
2023/05/29 09:29:41;;;;;;;0.15;0.00;;;28.70;47.80;;;;;;5065397;28;20215;-61
2023/05/29 09:32:12;;;;;;;0.22;0.20;;;28.50;46.80;;;;;;5073493;28;20189;-61
2023/05/29 09:34:39;;;;;;;0.00;0.00;;;28.30;47.20;;;;;;5073206;28;20184;-61
2023/05/29 09:37:08;;;;;;;0.00;0.00;;;28.30;48.40;;;;;;5073196;28;20188;-61
2023/05/29 09:39:47;;;;;;;0.00;0.00;;;28.60;48.20;;;;;;5072735;28;20212;-61
2023/05/29 09:42:14;;;;;;;0.00;0.00;;;29.10;48.50;;;;;;5053552;28;20219;-62
2023/05/29 09:44:41;;;;;;;0.00;0.00;;;29.20;46.00;;;;;;5059995;28;20247;-61
2023/05/29 09:47:07;;;;;;;0.00;0.00;;;28.90;46.30;;;;;;5073442;28;20169;-62
2023/05/29 09:49:32;;;;;;;0.10;0.10;;;28.70;47.30;;;;;;5073121;28;20209;-61
2023/05/29 09:51:59;;;;;;;0.00;0.00;;;28.60;46.90;;;;;;5073163;28;20203;-62
2023/05/29 09:54:29;;;;;;;0.00;0.00;;;28.60;47.50;;;;;;5073028;28;20177;-62
2023/05/29 09:56:57;;;;;;;0.00;0.00;;;28.70;47.60;;;;;;5073014;28;20267;-62
2023/05/29 09:59:24;;;;;;;0.00;0.00;;;28.80;46.80;;;;;;5073007;28;20263;-61
2023/05/29 10:02:02;;;;;;;0.00;0.00;;;28.80;46.60;;;;;;5072471;28;20212;-62
2023/05/29 10:04:29;;;;;;;0.03;0.03;;;28.80;47.10;;;;;;5072874;28;20196;-62
2023/05/29 10:06:56;;;;;;;0.00;0.00;;;29.00;47.70;;;;;;5071986;28;20185;-61
2023/05/29 10:09:25;;;;;;;0.00;0.00;;;29.20;46.50;;;;;;5072831;28;20548;-61
2023/05/29 10:11:57;;;;;;;0.00;0.00;;;29.50;46.30;;;;;;5073069;28;20570;-61
2023/05/29 10:14:27;;;;;;;0.00;0.00;;;29.70;45.20;;;;;;5072666;28;20180;-62
2023/05/29 10:16:57;;;;;;;0.00;0.00;;;29.90;45.40;;;;;;5072854;28;20181;-62
2023/05/29 10:19:26;;;;;;;0.00;0.00;;;29.90;44.70;;;;;;5072602;28;20510;-61
2023/05/29 10:21:53;;;;;;;0.00;0.00;;;29.80;45.80;;;;;;5072867;28;20579;-61
2023/05/29 10:24:20;;;;;;;0.00;0.00;;;29.80;44.30;;;;;;5058807;28;20189;-62
2023/05/29 10:26:50;;;;;;;0.08;0.08;;;29.70;44.30;;;;;;5052431;28;20252;-61
2023/05/29 10:29:37;;;;;;;0.00;0.00;;;29.30;45.00;;;;;;5064494;28;20209;-61
2023/05/29 10:32:26;;;;;;;0.00;0.00;;;29.10;46.00;;;;;;5055488;28;20185;-61
2023/05/29 10:34:54;;;;;;;0.00;0.00;;;28.90;45.60;;;;;;5068718;28;20172;-61
2023/05/29 10:37:46;;;;;;;0.00;0.00;;;28.80;45.80;;;;;;5072745;28;20169;-61
2023/05/29 10:40:16;;;;;;;0.00;0.00;;;28.70;46.20;;;;;;5071397;28;20176;-61
2023/05/29 10:42:47;;;;;;;0.00;0.00;;;28.80;46.10;;;;;;5070771;28;20196;-60
2023/05/29 10:45:31;;;;;;;0.00;0.00;;;28.80;47.00;;;;;;5072337;28;20184;-61
2023/05/29 10:48:17;;;;;;;0.00;0.00;;;29.10;46.40;;;;;;5071874;28;20235;-61
2023/05/29 10:50:45;;;;;;;0.20;0.20;;;29.10;44.90;;;;;;5071828;28;20218;-61
2023/05/29 10:53:14;;;;;;;0.00;0.00;;;29.00;45.30;;;;;;5072219;28;20168;-60
2023/05/29 10:55:41;;;;;;;0.00;0.00;;;29.00;44.50;;;;;;5071625;28;20199;-61
2023/05/29 10:58:14;;;;;;;0.00;0.00;;;29.00;44.90;;;;;;5071876;28;20687;-60
2023/05/29 11:00:41;;;;;;;0.47;0.47;;;28.80;43.80;;;;;;5071874;28;20184;-60
2023/05/29 11:03:08;;;;;;;0.00;0.00;;;28.60;44.50;;;;;;5071690;28;20253;-60
2023/05/29 11:05:33;;;;;;;0.00;0.00;;;28.50;44.60;;;;;;5071299;28;20545;-60
2023/05/29 11:08:03;;;;;;;0.00;0.00;;;28.40;45.10;;;;;;5071851;28;20259;-61
2023/05/29 11:10:44;;;;;;;0.00;0.00;;;28.30;44.40;;;;;;5071290;28;20238;-60
2023/05/29 11:13:10;;;;;;;0.17;0.17;;;28.10;44.50;;;;;;5071908;28;20180;-61
2023/05/29 11:15:38;;;;;;;0.10;0.10;;;27.90;44.80;;;;;;5071402;28;20185;-60
2023/05/29 11:18:07;;;;;;;0.50;0.50;;;27.90;44.80;;;;;;5071470;28;20185;-61
2023/05/29 11:20:41;;;;;;;0.00;0.00;;;28.00;45.10;;;;;;5071287;28;20211;-61
2023/05/29 11:23:08;;;;;;;0.00;0.00;;;28.10;44.30;;;;;;5071437;28;20195;-61
2023/05/29 11:25:37;;;;;;;0.00;0.00;;;28.20;43.80;;;;;;5071082;28;20261;-61
2023/05/29 11:28:10;;;;;;;0.00;0.00;;;28.20;43.20;;;;;;5071510;28;20541;-60
2023/05/29 11:30:46;;;;;;;0.00;0.00;;;28.20;43.90;;;;;;5060320;28;20220;-61
2023/05/29 11:33:23;;;;;;;0.00;0.00;;;28.40;42.70;;;;;;5071579;28;20261;-61
2023/05/29 11:35:57;;;;;;;0.00;0.00;;;28.30;43.20;;;;;;5070372;28;20181;-61
2023/05/29 11:38:25;;;;;;;0.00;0.00;;;28.30;42.80;;;;;;5068333;28;20242;-61
2023/05/29 11:40:51;;;;;;;0.00;0.00;;;28.50;41.40;;;;;;5070481;28;20183;-61
2023/05/29 11:43:17;;;;;;;0.00;0.00;;;28.40;41.90;;;;;;5070848;28;20180;-61
2023/05/29 11:45:42;;;;;;;0.00;0.00;;;28.30;42.00;;;;;;5070880;28;20180;-61
2023/05/29 11:48:08;;;;;;;0.00;0.00;;;28.10;41.10;;;;;;5069940;28;20197;-60
2023/05/29 11:50:35;;;;;;;0.00;0.00;;;28.30;41.30;;;;;;5069696;28;20232;-61
2023/05/29 11:53:01;;;;;;;0.00;0.00;;;28.40;42.00;;;;;;5070872;28;20185;-61
2023/05/29 11:55:27;;;;;;;0.00;0.00;;;28.40;41.30;;;;;;5071095;28;20169;-62
2023/05/29 11:57:58;;;;;;;0.00;0.00;;;28.60;41.30;;;;;;5071053;28;20188;-62
2023/05/29 12:00:24;;;;;;;0.00;0.00;;;28.60;41.10;;;;;;5071371;28;20371;-62
2023/05/29 12:02:51;;;;;;;0.00;0.00;;;28.60;41.50;;;;;;5070633;28;20264;-61
2023/05/29 12:05:20;;;;;;;0.00;0.00;;;28.70;40.60;;;;;;5071318;28;20590;-61
2023/05/29 12:08:01;;;;;;;0.00;0.00;;;28.60;41.00;;;;;;5070747;28;20173;-62
2023/05/29 12:10:27;;;;;;;0.00;0.00;;;28.60;41.20;;;;;;5070849;28;20216;-61
2023/05/29 12:12:58;;;;;;;0.00;0.00;;;28.50;41.30;;;;;;5070624;28;20268;-60
2023/05/29 12:15:24;;;;;;;0.00;0.00;;;28.50;41.60;;;;;;5071064;28;20172;-61
2023/05/29 12:17:51;;;;;;;0.00;0.00;;;28.60;41.10;;;;;;5070680;28;20686;-61
2023/05/29 12:20:17;;;;;;;0.00;0.00;;;28.60;41.30;;;;;;5070286;28;20512;-61
2023/05/29 12:22:44;;;;;;;0.00;0.00;;;28.60;41.90;;;;;;5070723;28;20224;-60
2023/05/29 12:25:12;;;;;;;0.00;0.00;;;28.60;42.00;;;;;;5070720;28;20224;-60
2023/05/29 12:27:42;;;;;;;0.00;0.00;;;28.60;42.10;;;;;;5070971;28;20579;-60
2023/05/29 12:30:11;;;;;;;0.00;0.00;;;28.60;42.20;;;;;;5072904;28;20730;-61
2023/05/29 12:32:38;;;;;;;0.00;0.00;;;28.60;42.00;;;;;;5074215;28;20208;-60
2023/05/29 12:35:10;;;;;;;0.00;0.00;;;28.70;41.90;;;;;;5073348;28;21072;-60
2023/05/29 12:37:36;;;;;;;0.00;0.00;;;28.70;42.00;;;;;;5074497;28;20176;-61
2023/05/29 12:40:18;;;;;;;0.00;0.00;;;28.40;41.70;;;;;;5074076;28;20189;-61
2023/05/29 12:42:44;;;;;;;0.00;0.00;;;28.40;42.30;;;;;;5073262;28;20549;-61
2023/05/29 12:45:11;;;;;;;0.10;0.10;;;28.40;41.90;;;;;;5075574;28;20632;-61
2023/05/29 12:47:36;;;;;;;0.00;0.00;;;28.50;42.20;;;;;;5074169;28;20268;-60
2023/05/29 12:50:20;;;;;;;0.00;0.00;;;28.30;41.90;;;;;;5075514;28;20331;-60